createdAt,value
2018-12-10T00:00:23.884Z,98631.73
2018-12-10T00:00:55.040Z,98630.88
2018-12-10T00:01:26.135Z,98632.61
2018-12-10T00:01:57.240Z,98631.73
2018-12-10T00:02:28.372Z,98633.02
2018-12-10T00:02:59.553Z,98633.89
2018-12-10T00:03:30.661Z,98629.19
2018-12-10T00:04:01.785Z,98634.76
2018-12-10T00:04:32.955Z,98631.77
2018-12-10T00:05:04.081Z,98632.21
2018-12-10T00:05:35.194Z,98630.95
2018-12-10T00:06:06.329Z,98627.55
2018-12-10T00:06:38.087Z,98630.98
2018-12-10T00:07:09.201Z,98627.53
2018-12-10T00:07:40.303Z,98630.98
2018-12-10T00:08:11.971Z,98633.98
2018-12-10T00:08:43.853Z,98631.39
2018-12-10T00:09:15.441Z,98636.13
2018-12-10T00:09:46.565Z,98630.95
2018-12-10T00:10:17.828Z,98636.52
2018-12-10T00:10:48.991Z,98639.12
2018-12-10T00:11:20.138Z,98635.69
2018-12-10T00:11:51.247Z,98636.98
2018-12-10T00:12:22.351Z,98633.14
2018-12-10T00:12:53.476Z,98634.42
2018-12-10T00:13:24.620Z,98631.03
2018-12-10T00:13:55.843Z,98637.05
2018-12-10T00:14:26.974Z,98634.08
2018-12-10T00:14:58.114Z,98635.34
2018-12-10T00:15:29.237Z,98634.90
2018-12-10T00:16:00.345Z,98629.76
2018-12-10T00:16:31.448Z,98632.80
2018-12-10T00:17:02.548Z,98635.78
2018-12-10T00:17:33.645Z,98630.64
2018-12-10T00:18:04.760Z,98625.52
2018-12-10T00:18:36.482Z,98631.51
2018-12-10T00:19:08.509Z,98626.80
2018-12-10T00:19:39.654Z,98633.26
2018-12-10T00:20:10.774Z,98625.59
2018-12-10T00:20:41.908Z,98628.14
2018-12-10T00:21:13.017Z,98627.28
2018-12-10T00:21:44.209Z,98629.41
2018-12-10T00:22:15.319Z,98627.70
2018-12-10T00:22:46.425Z,98628.55
2018-12-10T00:23:18.293Z,98626.84
2018-12-10T00:23:49.418Z,98632.42
2018-12-10T00:24:20.565Z,98630.71
2018-12-10T00:24:51.753Z,98627.72
2018-12-10T00:25:22.876Z,98632.03
2018-12-10T00:25:53.979Z,98627.75
2018-12-10T00:26:25.119Z,98622.19
2018-12-10T00:26:56.243Z,98627.77
2018-12-10T00:27:27.377Z,98629.50
2018-12-10T00:27:59.092Z,98630.80
2018-12-10T00:28:30.198Z,98629.09
2018-12-10T00:29:01.316Z,98624.81
2018-12-10T00:29:32.425Z,98629.52
2018-12-10T00:30:03.608Z,98623.09
2018-12-10T00:30:35.675Z,98628.23
2018-12-10T00:31:06.895Z,98631.27
2018-12-10T00:31:38.924Z,98627.85
2018-12-10T00:32:10.085Z,98630.84
2018-12-10T00:32:41.196Z,98630.40
2018-12-10T00:33:12.303Z,98624.00
2018-12-10T00:33:43.434Z,98632.14
2018-12-10T00:34:14.563Z,98630.89
2018-12-10T00:34:46.389Z,98636.03
2018-12-10T00:35:17.573Z,98630.92
2018-12-10T00:35:48.675Z,98628.37
2018-12-10T00:36:19.823Z,98626.64
2018-12-10T00:36:50.930Z,98629.20
2018-12-10T00:37:22.211Z,98625.82
2018-12-10T00:37:54.450Z,98624.95
2018-12-10T00:38:25.668Z,98627.95
2018-12-10T00:38:56.771Z,98624.95
2018-12-10T00:39:27.892Z,98627.52
2018-12-10T00:39:59.003Z,98628.80
2018-12-10T00:40:30.143Z,98627.09
2018-12-10T00:41:01.247Z,98632.66
2018-12-10T00:41:32.385Z,98625.84
2018-12-10T00:42:04.146Z,98625.42
2018-12-10T00:42:35.282Z,98628.84
2018-12-10T00:43:06.382Z,98624.13
2018-12-10T00:43:38.253Z,98622.84
2018-12-10T00:44:09.459Z,98626.69
2018-12-10T00:44:40.619Z,98627.55
2018-12-10T00:45:11.760Z,98626.66
2018-12-10T00:45:42.881Z,98623.64
2018-12-10T00:46:14.007Z,98625.80
2018-12-10T00:46:45.113Z,98627.91
2018-12-10T00:47:16.239Z,98622.36
2018-12-10T00:47:47.398Z,98628.33
2018-12-10T00:48:18.504Z,98627.52
2018-12-10T00:48:49.629Z,98626.23
2018-12-10T00:49:20.741Z,98627.52
2018-12-10T00:49:51.875Z,98622.37
2018-12-10T00:50:22.983Z,98624.97
2018-12-10T00:50:54.084Z,98624.97
2018-12-10T00:51:25.190Z,98626.66
2018-12-10T00:51:56.330Z,98624.98
2018-12-10T00:52:27.428Z,98621.97
2018-12-10T00:52:58.539Z,98620.69
2018-12-10T00:53:29.646Z,98627.09
2018-12-10T00:54:00.768Z,98619.80
2018-12-10T00:54:31.877Z,98622.79
2018-12-10T00:55:02.987Z,98623.23
2018-12-10T00:55:34.090Z,98617.22
2018-12-10T00:56:05.202Z,98617.22
2018-12-10T00:56:36.322Z,98618.08
2018-12-10T00:57:07.565Z,98618.91
2018-12-10T00:57:38.719Z,98614.20
2018-12-10T00:58:09.872Z,98617.22
2018-12-10T00:58:40.980Z,98621.03
2018-12-10T00:59:12.186Z,98621.05
2018-12-10T00:59:43.341Z,98618.88
2018-12-10T01:00:14.470Z,98616.30
2018-12-10T01:00:45.633Z,98621.03
2018-12-10T01:01:16.755Z,98619.27
2018-12-10T01:01:48.040Z,98617.14
2018-12-10T01:02:19.165Z,98623.53
2018-12-10T01:02:50.283Z,98617.53
2018-12-10T01:03:21.394Z,98618.83
2018-12-10T01:03:52.568Z,98608.53
2018-12-10T01:04:23.721Z,98613.63
2018-12-10T01:04:54.938Z,98609.34
2018-12-10T01:05:26.169Z,98611.05
2018-12-10T01:05:57.281Z,98607.63
2018-12-10T01:06:28.392Z,98610.17
2018-12-10T01:06:59.535Z,98603.30
2018-12-10T01:07:30.685Z,98607.15
2018-12-10T01:08:01.808Z,98606.27
2018-12-10T01:08:32.941Z,98603.70
2018-12-10T01:09:04.041Z,98610.10
2018-12-10T01:09:35.145Z,98610.10
2018-12-10T01:10:06.276Z,98609.24
2018-12-10T01:10:37.380Z,98607.94
2018-12-10T01:11:08.553Z,98605.81
2018-12-10T01:11:39.760Z,98609.20
2018-12-10T01:12:10.913Z,98609.22
2018-12-10T01:12:42.018Z,98610.92
2018-12-10T01:13:13.133Z,98612.65
2018-12-10T01:13:44.235Z,98616.52
2018-12-10T01:14:15.360Z,98610.92
2018-12-10T01:14:46.478Z,98617.33
2018-12-10T01:15:17.603Z,98613.47
2018-12-10T01:15:48.717Z,98608.72
2018-12-10T01:16:19.825Z,98608.70
2018-12-10T01:16:51.007Z,98608.30
2018-12-10T01:17:22.118Z,98609.14
2018-12-10T01:17:53.228Z,98611.72
2018-12-10T01:18:24.347Z,98610.39
2018-12-10T01:18:55.449Z,98611.64
2018-12-10T01:19:26.554Z,98609.89
2018-12-10T01:19:57.831Z,98607.74
2018-12-10T01:20:28.946Z,98605.53
2018-12-10T01:21:00.069Z,98600.34
2018-12-10T01:21:31.211Z,98603.34
2018-12-10T01:22:02.308Z,98606.80
2018-12-10T01:22:33.430Z,98601.25
2018-12-10T01:23:04.598Z,98600.44
2018-12-10T01:23:35.717Z,98599.53
2018-12-10T01:24:06.845Z,98596.50
2018-12-10T01:24:38.001Z,98600.30
2018-12-10T01:25:09.105Z,98598.53
2018-12-10T01:25:40.210Z,98599.83
2018-12-10T01:26:11.312Z,98598.98
2018-12-10T01:26:42.430Z,98596.44
2018-12-10T01:27:13.553Z,98595.56
2018-12-10T01:27:44.706Z,98591.73
2018-12-10T01:28:15.919Z,98588.33
2018-12-10T01:28:47.026Z,98590.88
2018-12-10T01:29:18.138Z,98588.77
2018-12-10T01:29:49.280Z,98591.33
2018-12-10T01:30:20.392Z,98586.20
2018-12-10T01:30:51.493Z,98586.68
2018-12-10T01:31:22.665Z,98587.17
2018-12-10T01:31:53.775Z,98590.20
2018-12-10T01:32:24.894Z,98586.75
2018-12-10T01:32:56.752Z,98591.84
2018-12-10T01:33:27.856Z,98590.09
2018-12-10T01:33:58.963Z,98591.81
2018-12-10T01:34:30.088Z,98584.08
2018-12-10T01:35:01.232Z,98588.77
2018-12-10T01:35:32.349Z,98580.69
2018-12-10T01:36:03.461Z,98585.47
2018-12-10T01:36:34.580Z,98587.77
2018-12-10T01:37:05.779Z,98583.58
2018-12-10T01:37:36.928Z,98586.61
2018-12-10T01:38:08.052Z,98587.98
2018-12-10T01:38:39.164Z,98585.02
2018-12-10T01:39:10.288Z,98584.61
2018-12-10T01:39:41.392Z,98581.57
2018-12-10T01:40:12.527Z,98582.87
2018-12-10T01:40:43.628Z,98582.04
2018-12-10T01:41:14.737Z,98585.50
2018-12-10T01:41:45.842Z,98579.55
2018-12-10T01:42:16.957Z,98578.77
2018-12-10T01:42:48.070Z,98582.23
2018-12-10T01:43:19.176Z,98586.09
2018-12-10T01:43:50.325Z,98586.13
2018-12-10T01:44:21.477Z,98585.27
2018-12-10T01:44:52.714Z,98586.55
2018-12-10T01:45:23.853Z,98589.13
2018-12-10T01:45:54.958Z,98585.27
2018-12-10T01:46:26.056Z,98589.14
2018-12-10T01:46:57.161Z,98591.69
2018-12-10T01:47:28.266Z,98587.84
2018-12-10T01:47:59.504Z,98589.94
2018-12-10T01:48:30.614Z,98592.09
2018-12-10T01:49:01.720Z,98588.27
2018-12-10T01:49:32.827Z,98590.81
2018-12-10T01:50:04.003Z,98590.83
2018-12-10T01:50:35.113Z,98583.98
2018-12-10T01:51:06.223Z,98586.55
2018-12-10T01:51:37.316Z,98585.27
2018-12-10T01:52:08.416Z,98593.39
2018-12-10T01:52:39.531Z,98586.13
2018-12-10T01:53:10.638Z,98592.53
2018-12-10T01:53:41.761Z,98586.98
2018-12-10T01:54:12.904Z,98586.55
2018-12-10T01:54:44.012Z,98581.44
2018-12-10T01:55:15.171Z,98580.99
2018-12-10T01:55:46.277Z,98583.13
2018-12-10T01:56:17.379Z,98583.13
2018-12-10T01:56:48.485Z,98586.52
2018-12-10T01:57:19.588Z,98578.38
2018-12-10T01:57:50.688Z,98583.07
2018-12-10T01:58:21.797Z,98584.78
2018-12-10T01:58:53.781Z,98580.93
2018-12-10T01:59:24.884Z,98576.63
2018-12-10T01:59:55.991Z,98575.25
2018-12-10T02:00:27.145Z,98578.67
2018-12-10T02:00:58.251Z,98574.78
2018-12-10T02:01:29.363Z,98573.45
2018-12-10T02:02:00.462Z,98515.99
2018-12-10T02:02:31.576Z,98565.77
2018-12-10T02:03:02.681Z,98571.34
2018-12-10T02:03:33.790Z,98563.20
2018-12-10T02:04:04.890Z,98570.91
2018-12-10T02:04:36.005Z,98570.06
2018-12-10T02:05:07.114Z,98569.67
2018-12-10T02:05:38.273Z,98567.08
2018-12-10T02:06:09.389Z,98561.52
2018-12-10T02:06:40.537Z,98561.97
2018-12-10T02:07:11.640Z,98561.07
2018-12-10T02:07:42.741Z,98566.21
2018-12-10T02:08:13.848Z,98561.07
2018-12-10T02:08:44.967Z,98567.49
2018-12-10T02:09:16.105Z,98569.25
2018-12-10T02:09:47.214Z,98567.53
2018-12-10T02:10:18.329Z,98563.26
2018-12-10T02:10:49.469Z,98562.41
2018-12-10T02:11:20.591Z,98555.59
2018-12-10T02:11:51.695Z,98562.83
2018-12-10T02:12:22.800Z,98553.84
2018-12-10T02:12:53.905Z,98557.27
2018-12-10T02:13:25.082Z,98553.83
2018-12-10T02:13:56.185Z,98553.83
2018-12-10T02:14:27.294Z,98554.66
2018-12-10T02:14:58.399Z,98554.20
2018-12-10T02:15:29.511Z,98553.72
2018-12-10T02:16:00.863Z,98548.06
2018-12-10T02:16:31.982Z,98547.14
2018-12-10T02:17:03.101Z,98548.41
2018-12-10T02:17:34.207Z,98542.78
2018-12-10T02:18:05.336Z,98545.73
2018-12-10T02:18:36.438Z,98540.55
2018-12-10T02:19:07.575Z,98547.00
2018-12-10T02:19:38.699Z,98544.40
2018-12-10T02:20:09.805Z,98547.39
2018-12-10T02:20:40.931Z,98545.25
2018-12-10T02:21:12.092Z,98547.80
2018-12-10T02:21:43.249Z,98543.52
2018-12-10T02:22:14.366Z,98546.89
2018-12-10T02:22:45.636Z,98544.74
2018-12-10T02:23:16.818Z,98540.89
2018-12-10T02:23:48.018Z,98542.17
2018-12-10T02:24:19.153Z,98542.43
2018-12-10T02:24:50.277Z,98540.61
2018-12-10T02:25:21.415Z,98541.41
2018-12-10T02:25:52.540Z,98535.80
2018-12-10T02:26:23.656Z,98536.63
2018-12-10T02:26:54.812Z,98537.07
2018-12-10T02:27:25.914Z,98537.89
2018-12-10T02:27:57.020Z,98537.47
2018-12-10T02:28:28.152Z,98539.16
2018-12-10T02:28:59.256Z,98535.70
2018-12-10T02:29:30.378Z,98540.86
2018-12-10T02:30:01.503Z,98539.16
2018-12-10T02:30:32.599Z,98536.55
2018-12-10T02:31:03.834Z,98536.13
2018-12-10T02:31:35.076Z,98541.27
2018-12-10T02:32:06.241Z,98540.44
2018-12-10T02:32:37.348Z,98540.91
2018-12-10T02:33:08.469Z,98534.48
2018-12-10T02:33:39.596Z,98534.90
2018-12-10T02:34:10.713Z,98537.05
2018-12-10T02:34:41.822Z,98535.78
2018-12-10T02:35:12.939Z,98532.41
2018-12-10T02:35:44.040Z,98534.13
2018-12-10T02:36:15.166Z,98533.70
2018-12-10T02:36:46.271Z,98536.70
2018-12-10T02:37:17.410Z,98536.73
2018-12-10T02:37:48.527Z,98529.91
2018-12-10T02:38:19.650Z,98532.05
2018-12-10T02:38:50.760Z,98530.37
2018-12-10T02:39:21.880Z,98532.92
2018-12-10T02:39:52.977Z,98529.04
2018-12-10T02:40:24.127Z,98530.71
2018-12-10T02:40:55.286Z,98530.67
2018-12-10T02:41:26.398Z,98526.79
2018-12-10T02:41:57.518Z,98528.05
2018-12-10T02:42:28.632Z,98528.47
2018-12-10T02:42:59.741Z,98532.67
2018-12-10T02:43:30.853Z,98529.60
2018-12-10T02:44:01.961Z,98526.11
2018-12-10T02:44:33.065Z,98528.68
2018-12-10T02:45:04.173Z,98527.03
2018-12-10T02:45:35.320Z,98530.06
2018-12-10T02:46:06.461Z,98526.27
2018-12-10T02:46:39.721Z,98530.57
2018-12-10T02:47:10.834Z,98528.91
2018-12-10T02:47:41.944Z,98531.50
2018-12-10T02:48:13.107Z,98525.94
2018-12-10T02:48:44.895Z,98525.48
2018-12-10T02:49:16.051Z,98528.83
2018-12-10T02:49:47.825Z,98527.11
2018-12-10T02:50:18.983Z,98528.78
2018-12-10T02:50:50.141Z,98524.95
2018-12-10T02:51:21.265Z,98530.09
2018-12-10T02:51:52.392Z,98520.70
2018-12-10T02:52:23.542Z,98523.27
2018-12-10T02:52:54.673Z,98515.97
2018-12-10T02:53:25.788Z,98515.92
2018-12-10T02:53:56.907Z,98516.81
2018-12-10T02:54:28.010Z,98519.83
2018-12-10T02:54:59.117Z,98515.97
2018-12-10T02:55:30.239Z,98509.96
2018-12-10T02:56:01.465Z,98510.39
2018-12-10T02:56:32.646Z,98510.83
2018-12-10T02:57:03.805Z,98506.97
2018-12-10T02:57:34.913Z,98509.15
2018-12-10T02:58:06.062Z,98504.03
2018-12-10T02:58:37.187Z,98507.89
2018-12-10T02:59:08.299Z,98504.48
2018-12-10T02:59:39.460Z,98505.78
2018-12-10T03:00:10.600Z,98508.46
2018-12-10T03:00:41.810Z,98504.68
2018-12-10T03:01:12.996Z,98503.86
2018-12-10T03:01:44.099Z,98502.62
2018-12-10T03:02:15.218Z,98508.20
2018-12-10T03:02:46.333Z,98499.69
2018-12-10T03:03:18.488Z,98500.15
2018-12-10T03:03:49.609Z,98498.42
2018-12-10T03:04:20.729Z,98496.27
2018-12-10T03:04:51.877Z,98500.13
2018-12-10T03:05:22.989Z,98503.56
2018-12-10T03:05:54.107Z,98502.27
2018-12-10T03:06:25.237Z,98499.28
2018-12-10T03:06:56.401Z,98504.03
2018-12-10T03:07:27.522Z,98503.61
2018-12-10T03:07:58.656Z,98500.98
2018-12-10T03:08:33.701Z,98500.97
2018-12-10T03:09:04.811Z,98497.53
2018-12-10T03:09:35.994Z,98505.22
2018-12-10T03:10:07.112Z,98510.34
2018-12-10T03:10:38.265Z,98503.05
2018-12-10T03:11:09.446Z,98505.13
2018-12-10T03:11:40.588Z,98507.64
2018-12-10T03:12:11.721Z,98505.05
2018-12-10T03:12:42.835Z,98505.41
2018-12-10T03:13:13.945Z,98510.14
2018-12-10T03:13:45.082Z,98508.41
2018-12-10T03:14:16.211Z,98509.17
2018-12-10T03:14:47.391Z,98511.27
2018-12-10T03:15:18.507Z,98507.41
2018-12-10T03:15:49.640Z,98506.13
2018-12-10T03:16:20.755Z,98503.98
2018-12-10T03:16:51.872Z,98505.24
2018-12-10T03:17:23.003Z,98504.81
2018-12-10T03:17:54.111Z,98507.44
2018-12-10T03:18:25.257Z,98505.73
2018-12-10T03:18:57.149Z,98501.48
2018-12-10T03:19:28.262Z,98504.05
2018-12-10T03:19:59.387Z,98506.63
2018-12-10T03:20:30.518Z,98508.36
2018-12-10T03:21:01.656Z,98503.27
2018-12-10T03:21:32.769Z,98509.75
2018-12-10T03:22:03.893Z,98506.76
2018-12-10T03:22:35.009Z,98509.77
2018-12-10T03:23:06.130Z,98505.06
2018-12-10T03:23:37.297Z,98508.98
2018-12-10T03:24:08.458Z,98508.58
2018-12-10T03:24:40.620Z,98509.90
2018-12-10T03:25:11.743Z,98512.91
2018-12-10T03:25:42.858Z,98509.50
2018-12-10T03:26:14.006Z,98509.50
2018-12-10T03:26:45.114Z,98509.07
2018-12-10T03:27:16.227Z,98513.34
2018-12-10T03:27:47.353Z,98512.06
2018-12-10T03:28:18.489Z,98517.23
2018-12-10T03:28:49.652Z,98510.45
2018-12-10T03:29:20.768Z,98510.53
2018-12-10T03:29:51.886Z,98509.23
2018-12-10T03:30:23.529Z,98504.12
2018-12-10T03:30:55.178Z,98510.13
2018-12-10T03:31:26.367Z,98510.59
2018-12-10T03:31:57.482Z,98507.18
2018-12-10T03:32:28.614Z,98506.76
2018-12-10T03:32:59.752Z,98511.09
2018-12-10T03:33:30.906Z,98513.72
2018-12-10T03:34:02.053Z,98515.86
2018-12-10T03:34:33.183Z,98511.60
2018-12-10T03:35:04.292Z,98516.77
2018-12-10T03:35:35.389Z,98512.08
2018-12-10T03:36:06.522Z,98509.92
2018-12-10T03:36:37.663Z,98519.36
2018-12-10T03:37:08.808Z,98515.95
2018-12-10T03:37:39.908Z,98517.23
2018-12-10T03:38:11.031Z,98525.39
2018-12-10T03:38:42.176Z,98524.11
2018-12-10T03:39:13.324Z,98527.56
2018-12-10T03:39:44.526Z,98525.47
2018-12-10T03:40:15.653Z,98526.30
2018-12-10T03:40:46.838Z,98534.45
2018-12-10T03:41:17.946Z,98527.16
2018-12-10T03:41:49.053Z,98527.63
2018-12-10T03:42:20.824Z,98526.80
2018-12-10T03:42:51.942Z,98524.73
2018-12-10T03:43:23.039Z,98531.59
2018-12-10T03:43:54.201Z,98535.05
2018-12-10T03:44:25.443Z,98529.91
2018-12-10T03:44:56.574Z,98535.44
2018-12-10T03:45:27.727Z,98533.73
2018-12-10T03:45:59.413Z,98531.59
2018-12-10T03:46:30.641Z,98536.74
2018-12-10T03:47:01.825Z,98529.46
2018-12-10T03:47:33.015Z,98534.62
2018-12-10T03:48:04.150Z,98541.09
2018-12-10T03:48:35.285Z,98536.04
2018-12-10T03:49:06.396Z,98543.41
2018-12-10T03:49:37.522Z,98544.31
2018-12-10T03:50:08.641Z,98545.62
2018-12-10T03:50:39.739Z,98540.97
2018-12-10T03:51:10.847Z,98547.41
2018-12-10T03:51:41.954Z,98550.02
2018-12-10T03:52:13.161Z,98550.05
2018-12-10T03:52:44.309Z,98541.09
2018-12-10T03:53:15.404Z,98545.80
2018-12-10T03:53:46.551Z,98543.25
2018-12-10T03:54:17.658Z,98548.78
2018-12-10T03:54:48.781Z,98541.95
2018-12-10T03:55:19.891Z,98544.53
2018-12-10T03:55:51.008Z,98545.39
2018-12-10T03:56:22.127Z,98543.71
2018-12-10T03:56:53.232Z,98545.87
2018-12-10T03:57:24.360Z,98544.17
2018-12-10T03:57:56.286Z,98543.30
2018-12-10T03:58:27.431Z,98547.59
2018-12-10T03:58:58.931Z,98549.30
2018-12-10T03:59:30.084Z,98551.88
2018-12-10T04:00:01.241Z,98554.89
2018-12-10T04:00:33.188Z,98554.48
2018-12-10T04:01:04.283Z,98553.64
2018-12-10T04:01:35.419Z,98557.92
2018-12-10T04:02:06.545Z,98557.06
2018-12-10T04:02:37.672Z,98555.39
2018-12-10T04:03:08.790Z,98558.80
2018-12-10T04:03:39.927Z,98559.24
2018-12-10T04:04:11.082Z,98561.41
2018-12-10T04:04:42.226Z,98555.47
2018-12-10T04:05:13.348Z,98552.50
2018-12-10T04:05:44.493Z,98547.81
2018-12-10T04:06:15.646Z,98547.80
2018-12-10T04:06:46.773Z,98556.75
2018-12-10T04:07:17.931Z,98550.34
2018-12-10T04:07:49.165Z,98556.32
2018-12-10T04:08:20.314Z,98551.63
2018-12-10T04:08:52.007Z,98548.20
2018-12-10T04:09:23.143Z,98549.06
2018-12-10T04:09:55.629Z,98547.78
2018-12-10T04:10:26.764Z,98552.05
2018-12-10T04:10:58.556Z,98540.94
2018-12-10T04:11:29.686Z,98547.75
2018-12-10T04:12:00.792Z,98547.32
2018-12-10T04:12:31.942Z,98552.02
2018-12-10T04:13:03.077Z,98549.03
2018-12-10T04:13:34.187Z,98546.05
2018-12-10T04:14:05.349Z,98551.16
2018-12-10T04:14:36.476Z,98552.05
2018-12-10T04:15:07.608Z,98550.34
2018-12-10T04:15:38.781Z,98549.06
2018-12-10T04:16:09.918Z,98546.92
2018-12-10T04:16:41.016Z,98548.62
2018-12-10T04:17:12.166Z,98549.48
2018-12-10T04:17:43.325Z,98549.48
2018-12-10T04:18:14.555Z,98546.50
2018-12-10T04:18:45.716Z,98546.92
2018-12-10T04:19:16.901Z,98488.12
2018-12-10T04:19:49.044Z,98547.34
2018-12-10T04:20:20.203Z,98546.94
2018-12-10T04:20:51.487Z,98549.91
2018-12-10T04:21:23.370Z,98545.67
2018-12-10T04:21:54.746Z,98543.50
2018-12-10T04:22:25.878Z,98547.77
2018-12-10T04:22:56.990Z,98546.51
2018-12-10T04:23:28.105Z,98542.23
2018-12-10T04:23:59.292Z,98543.95
2018-12-10T04:24:30.552Z,98533.28
2018-12-10T04:25:01.699Z,98540.55
2018-12-10T04:25:32.869Z,98540.11
2018-12-10T04:26:04.252Z,98537.56
2018-12-10T04:26:35.415Z,98543.97
2018-12-10T04:27:06.591Z,98394.88
2018-12-10T04:27:37.735Z,98540.56
2018-12-10T04:28:08.908Z,98545.27
2018-12-10T04:28:40.081Z,98543.54
2018-12-10T04:29:11.242Z,98546.12
2018-12-10T04:29:42.381Z,98546.12
2018-12-10T04:30:13.494Z,98549.12
2018-12-10T04:30:44.628Z,98549.96
2018-12-10T04:31:15.893Z,98555.09
2018-12-10T04:31:47.043Z,98549.96
2018-12-10T04:32:18.215Z,98551.23
2018-12-10T04:32:49.326Z,98547.82
2018-12-10T04:33:20.476Z,98544.86
2018-12-10T04:33:52.157Z,98548.23
2018-12-10T04:34:24.043Z,98549.08
2018-12-10T04:34:55.192Z,98548.64
2018-12-10T04:35:26.300Z,98545.67
2018-12-10T04:35:57.448Z,98545.23
2018-12-10T04:36:28.567Z,98543.08
2018-12-10T04:36:59.705Z,98539.23
2018-12-10T04:37:30.872Z,98536.23
2018-12-10T04:38:02.004Z,98532.41
2018-12-10T04:38:33.146Z,98537.09
2018-12-10T04:39:04.316Z,98537.96
2018-12-10T04:39:35.479Z,98542.22
2018-12-10T04:40:06.653Z,98542.66
2018-12-10T04:40:37.769Z,98542.67
2018-12-10T04:41:08.912Z,98544.37
2018-12-10T04:41:40.108Z,98540.95
2018-12-10T04:42:11.341Z,98546.09
2018-12-10T04:42:42.466Z,98539.69
2018-12-10T04:43:13.586Z,98542.27
2018-12-10T04:43:44.711Z,98548.23
2018-12-10T04:44:15.824Z,98541.39
2018-12-10T04:44:46.935Z,98543.53
2018-12-10T04:45:18.132Z,98547.34
2018-12-10T04:45:49.244Z,98543.50
2018-12-10T04:46:20.347Z,98544.34
2018-12-10T04:46:51.461Z,98548.20
2018-12-10T04:47:22.627Z,98547.31
2018-12-10T04:47:53.795Z,98548.19
2018-12-10T04:48:24.907Z,98544.77
2018-12-10T04:48:56.005Z,98544.34
2018-12-10T04:49:27.135Z,98539.63
2018-12-10T04:49:58.236Z,98535.37
2018-12-10T04:50:29.376Z,98541.80
2018-12-10T04:51:00.541Z,98538.34
2018-12-10T04:51:31.668Z,98543.47
2018-12-10T04:52:02.770Z,98538.80
2018-12-10T04:52:34.118Z,98540.50
2018-12-10T04:53:05.257Z,98540.91
2018-12-10T04:53:36.394Z,98547.75
2018-12-10T04:54:07.618Z,98543.90
2018-12-10T04:54:38.842Z,98541.34
2018-12-10T04:55:10.021Z,98543.90
2018-12-10T04:55:41.333Z,98549.88
2018-12-10T04:56:12.486Z,98542.19
2018-12-10T04:56:43.591Z,98543.08
2018-12-10T04:57:14.830Z,98539.63
2018-12-10T04:57:45.935Z,98545.20
2018-12-10T04:58:17.090Z,98543.08
2018-12-10T04:58:48.199Z,98541.37
2018-12-10T04:59:19.325Z,98541.78
2018-12-10T04:59:52.834Z,98546.05
2018-12-10T05:00:23.642Z,98542.19
2018-12-10T05:00:55.871Z,98543.90
2018-12-10T05:01:27.063Z,98545.18
2018-12-10T05:01:58.227Z,98552.86
2018-12-10T05:02:29.405Z,98550.31
2018-12-10T05:03:00.556Z,98546.89
2018-12-10T05:03:31.695Z,98548.17
2018-12-10T05:04:02.816Z,98551.14
2018-12-10T05:04:34.802Z,98557.09
2018-12-10T05:05:05.931Z,98552.81
2018-12-10T05:05:37.524Z,98556.23
2018-12-10T05:06:08.642Z,98556.20
2018-12-10T05:06:39.762Z,98553.64
2018-12-10T05:07:10.886Z,98548.94
2018-12-10T05:07:42.000Z,98554.47
2018-12-10T05:08:13.096Z,98559.56
2018-12-10T05:08:44.258Z,98557.42
2018-12-10T05:09:15.370Z,98554.44
2018-12-10T05:09:46.507Z,98553.97
2018-12-10T05:10:17.654Z,98557.82
2018-12-10T05:10:48.754Z,98556.54
2018-12-10T05:11:19.894Z,98560.38
2018-12-10T05:11:53.290Z,98563.83
2018-12-10T05:12:24.565Z,98562.95
2018-12-10T05:12:55.718Z,98562.50
2018-12-10T05:13:26.829Z,98556.11
2018-12-10T05:13:57.928Z,98556.50
2018-12-10T05:14:29.044Z,98553.52
2018-12-10T05:15:00.157Z,98560.78
2018-12-10T05:15:31.263Z,98554.34
2018-12-10T05:16:02.409Z,98551.33
2018-12-10T05:16:33.540Z,98547.88
2018-12-10T05:17:04.647Z,98550.42
2018-12-10T05:17:35.753Z,98549.10
2018-12-10T05:18:06.881Z,98551.64
2018-12-10T05:18:37.992Z,98553.33
2018-12-10T05:19:09.113Z,98552.05
2018-12-10T05:19:40.283Z,98551.17
2018-12-10T05:20:11.391Z,98544.78
2018-12-10T05:20:42.542Z,98547.34
2018-12-10T05:21:13.662Z,98544.39
2018-12-10T05:21:44.828Z,98543.11
2018-12-10T05:22:15.963Z,98545.66
2018-12-10T05:22:47.077Z,98549.50
2018-12-10T05:23:18.212Z,98543.09
2018-12-10T05:23:49.328Z,98545.66
2018-12-10T05:24:20.448Z,98549.94
2018-12-10T05:24:51.563Z,98549.08
2018-12-10T05:25:22.693Z,98546.95
2018-12-10T05:25:53.838Z,98549.51
2018-12-10T05:26:25.000Z,98559.38
2018-12-10T05:26:56.129Z,98554.66
2018-12-10T05:27:27.237Z,98552.54
2018-12-10T05:27:58.355Z,98552.97
2018-12-10T05:28:29.461Z,98556.85
2018-12-10T05:29:00.581Z,98554.72
2018-12-10T05:29:31.701Z,98556.02
2018-12-10T05:30:02.816Z,98559.46
2018-12-10T05:30:33.937Z,98561.59
2018-12-10T05:31:05.049Z,98562.05
2018-12-10T05:31:36.206Z,98561.63
2018-12-10T05:32:07.340Z,98562.50
2018-12-10T05:32:38.468Z,98563.79
2018-12-10T05:33:09.586Z,98566.39
2018-12-10T05:33:40.704Z,98566.39
2018-12-10T05:34:11.807Z,98563.02
2018-12-10T05:34:42.904Z,98565.98
2018-12-10T05:35:14.038Z,98567.27
2018-12-10T05:35:45.203Z,98569.86
2018-12-10T05:36:16.301Z,98567.30
2018-12-10T05:36:47.461Z,98568.14
2018-12-10T05:37:18.590Z,98568.58
2018-12-10T05:37:49.728Z,98570.27
2018-12-10T05:38:20.827Z,98571.55
2018-12-10T05:38:51.926Z,98567.26
2018-12-10T05:39:23.034Z,98536.58
2018-12-10T05:39:54.158Z,98565.56
2018-12-10T05:40:25.269Z,98567.72
2018-12-10T05:40:56.621Z,98561.73
2018-12-10T05:41:28.738Z,98563.86
2018-12-10T05:41:59.865Z,98566.42
2018-12-10T05:42:30.995Z,98559.20
2018-12-10T05:43:02.112Z,98565.59
2018-12-10T05:43:33.216Z,98557.89
2018-12-10T05:44:04.311Z,98559.17
2018-12-10T05:44:35.472Z,98563.88
2018-12-10T05:45:06.581Z,98562.16
2018-12-10T05:45:37.701Z,98557.87
2018-12-10T05:46:08.829Z,98562.13
2018-12-10T05:46:40.207Z,98561.70
2018-12-10T05:47:11.386Z,98559.99
2018-12-10T05:47:42.536Z,98557.88
2018-12-10T05:48:13.670Z,98566.39
2018-12-10T05:48:44.795Z,98558.73
2018-12-10T05:49:15.920Z,98568.97
2018-12-10T05:49:47.059Z,98574.95
2018-12-10T05:50:18.158Z,98570.68
2018-12-10T05:50:49.376Z,98571.52
2018-12-10T05:51:20.492Z,98571.53
2018-12-10T05:51:51.640Z,98574.50
2018-12-10T05:52:22.769Z,98573.64
2018-12-10T05:52:53.898Z,98576.62
2018-12-10T05:53:25.943Z,98577.47
2018-12-10T05:53:57.059Z,98575.31
2018-12-10T05:54:28.157Z,98578.76
2018-12-10T05:54:59.268Z,98579.58
2018-12-10T05:55:30.372Z,98576.59
2018-12-10T05:56:01.496Z,98574.03
2018-12-10T05:56:32.651Z,98577.02
2018-12-10T05:57:03.765Z,98570.59
2018-12-10T05:57:34.865Z,98580.00
2018-12-10T05:58:06.044Z,98577.86
2018-12-10T05:58:37.168Z,98575.73
2018-12-10T05:59:08.301Z,98577.42
2018-12-10T05:59:39.423Z,98580.38
2018-12-10T06:00:10.540Z,98575.67
2018-12-10T06:00:41.662Z,98578.31
2018-12-10T06:01:12.772Z,98582.16
2018-12-10T06:01:43.905Z,98585.19
2018-12-10T06:02:15.029Z,98580.07
2018-12-10T06:02:46.155Z,98580.91
2018-12-10T06:03:17.340Z,98581.80
2018-12-10T06:03:48.470Z,98588.61
2018-12-10T06:04:19.628Z,98584.75
2018-12-10T06:04:50.740Z,98584.82
2018-12-10T06:05:21.842Z,98589.99
2018-12-10T06:05:52.987Z,98594.70
2018-12-10T06:06:24.092Z,98590.00